createdAt,value
2019-05-28T00:00:49.957Z,2.43
2019-05-28T00:03:21.556Z,2.00
2019-05-28T00:05:53.116Z,2.43
2019-05-28T00:08:24.708Z,1.97
2019-05-28T00:10:56.265Z,1.87
2019-05-28T00:13:27.868Z,2.33
2019-05-28T00:15:59.555Z,1.90
2019-05-28T00:18:31.146Z,2.30
2019-05-28T00:21:02.710Z,2.00
2019-05-28T00:23:34.393Z,2.20
2019-05-28T00:26:06.050Z,2.00
2019-05-28T00:28:38.823Z,2.47
2019-05-28T00:31:10.417Z,2.33
2019-05-28T00:33:41.996Z,2.17
2019-05-28T00:36:13.564Z,2.17
2019-05-28T00:38:45.129Z,2.40
2019-05-28T00:41:16.976Z,2.80
2019-05-28T00:43:48.526Z,2.17
2019-05-28T00:46:20.094Z,2.80
2019-05-28T00:48:51.653Z,2.77
2019-05-28T00:51:23.235Z,2.57
2019-05-28T00:53:54.833Z,2.37
2019-05-28T00:56:26.621Z,2.70
2019-05-28T00:58:58.477Z,2.20
2019-05-28T01:01:30.057Z,2.50
2019-05-28T01:04:01.670Z,2.27
2019-05-28T01:06:33.237Z,2.20
2019-05-28T01:09:07.054Z,2.40
2019-05-28T01:11:38.607Z,2.83
2019-05-28T01:14:10.226Z,2.50
2019-05-28T01:16:41.780Z,2.27
2019-05-28T01:19:13.365Z,2.43
2019-05-28T01:21:44.904Z,2.90
2019-05-28T01:24:16.480Z,2.40
2019-05-28T01:26:48.039Z,2.80
2019-05-28T01:29:19.618Z,2.70
2019-05-28T01:31:51.187Z,2.47
2019-05-28T01:34:22.767Z,2.43
2019-05-28T01:36:54.324Z,2.53
2019-05-28T01:39:25.901Z,3.03
2019-05-28T01:41:57.437Z,2.70
2019-05-28T01:44:28.983Z,2.53
2019-05-28T01:47:00.545Z,2.53
2019-05-28T01:49:32.078Z,2.63
2019-05-28T01:52:03.663Z,2.97
2019-05-28T01:54:35.216Z,2.83
2019-05-28T01:57:06.797Z,3.20
2019-05-28T01:59:38.355Z,2.30
2019-05-28T02:02:09.926Z,2.77
2019-05-28T02:04:41.526Z,2.40
2019-05-28T02:07:13.094Z,2.50
2019-05-28T02:09:44.637Z,2.70
2019-05-28T02:12:16.242Z,3.07
2019-05-28T02:14:47.783Z,2.87
2019-05-28T02:17:19.372Z,2.50
2019-05-28T02:19:50.923Z,2.53
2019-05-28T02:22:22.502Z,2.60
2019-05-28T02:24:54.066Z,2.73
2019-05-28T02:27:25.643Z,2.50
2019-05-28T02:29:57.329Z,2.90
2019-05-28T02:32:29.059Z,3.03
2019-05-28T02:35:00.604Z,3.00
2019-05-28T02:37:32.275Z,3.30
2019-05-28T02:40:04.073Z,2.50
2019-05-28T02:42:35.870Z,2.90
2019-05-28T02:45:08.519Z,2.93
2019-05-28T02:47:40.194Z,3.50
2019-05-28T02:50:12.516Z,3.03
2019-05-28T02:52:44.685Z,2.90
2019-05-28T02:55:17.456Z,3.50
2019-05-28T02:57:51.227Z,3.30
2019-05-28T03:00:23.082Z,3.63
2019-05-28T03:02:55.151Z,3.20
2019-05-28T03:05:26.925Z,3.20
2019-05-28T03:07:59.069Z,3.40
2019-05-28T03:11:01.695Z,3.57
2019-05-28T03:13:11.481Z,3.30
2019-05-28T03:15:46.825Z,3.60
2019-05-28T03:18:20.483Z,3.60
2019-05-28T03:20:52.859Z,3.30
2019-05-28T03:23:26.826Z,3.43
2019-05-28T03:25:59.040Z,3.87
2019-05-28T03:28:30.960Z,3.27
2019-05-28T03:31:02.551Z,3.70
2019-05-28T03:33:34.115Z,3.70
2019-05-28T03:36:07.396Z,3.90
2019-05-28T03:38:39.471Z,3.47
2019-05-28T03:41:11.315Z,4.30
2019-05-28T03:43:42.904Z,3.83
2019-05-28T03:46:14.484Z,4.00
2019-05-28T03:48:47.110Z,3.53
2019-05-28T03:51:18.713Z,3.90
2019-05-28T03:53:50.262Z,4.10
2019-05-28T03:56:21.852Z,4.17
2019-05-28T03:58:53.405Z,3.60
2019-05-28T04:01:25.018Z,4.03
2019-05-28T04:03:56.596Z,4.23
2019-05-28T04:06:28.182Z,3.77
2019-05-28T04:08:59.750Z,3.80
2019-05-28T04:11:44.344Z,3.87
2019-05-28T04:14:04.588Z,3.93
2019-05-28T04:16:36.163Z,4.53
2019-05-28T04:19:07.717Z,5.90
2019-05-28T04:21:39.292Z,8.90
2019-05-28T04:24:10.869Z,9.00
2019-05-28T04:26:42.460Z,11.67
2019-05-28T04:29:14.044Z,13.83
2019-05-28T04:31:45.630Z,13.70
2019-05-28T04:34:17.191Z,15.13
2019-05-28T04:36:48.784Z,14.80
2019-05-28T04:39:20.364Z,15.77
2019-05-28T04:41:51.957Z,15.60
2019-05-28T04:44:23.540Z,15.90
2019-05-28T04:46:55.114Z,16.20
2019-05-28T04:49:26.695Z,16.00
2019-05-28T04:51:58.283Z,16.60
2019-05-28T04:54:29.855Z,15.27
2019-05-28T04:57:01.412Z,16.60
2019-05-28T04:59:33.007Z,15.90
2019-05-28T05:02:05.678Z,15.77
2019-05-28T05:04:37.276Z,16.70
2019-05-28T05:07:08.854Z,16.00
2019-05-28T05:09:40.453Z,16.57
2019-05-28T05:12:12.057Z,17.57
2019-05-28T05:14:43.624Z,15.53
2019-05-28T05:17:15.247Z,16.37
2019-05-28T05:19:46.817Z,16.57
2019-05-28T05:22:18.412Z,15.00
2019-05-28T05:24:49.980Z,15.43
2019-05-28T05:27:21.552Z,15.57
2019-05-28T05:29:53.151Z,15.17
2019-05-28T05:32:27.767Z,14.27
2019-05-28T05:34:58.032Z,13.80
2019-05-28T05:37:29.620Z,14.90
2019-05-28T05:40:01.249Z,13.90
2019-05-28T05:42:32.828Z,15.07
2019-05-28T05:45:07.468Z,15.20
2019-05-28T05:47:38.045Z,14.57
2019-05-28T05:50:10.746Z,15.10
2019-05-28T05:52:43.447Z,15.80
2019-05-28T05:55:15.345Z,18.00
2019-05-28T05:57:46.914Z,17.07
2019-05-28T06:00:19.483Z,16.63
2019-05-28T06:02:51.075Z,16.67
2019-05-28T06:05:22.675Z,16.80
2019-05-28T06:07:54.257Z,16.37
2019-05-28T06:10:25.975Z,17.70
2019-05-28T06:12:57.580Z,17.67
2019-05-28T06:15:29.197Z,16.17
2019-05-28T06:18:00.922Z,14.60
2019-05-28T06:20:32.501Z,14.90
2019-05-28T06:23:04.255Z,16.73
2019-05-28T06:25:36.954Z,15.63
2019-05-28T06:28:08.634Z,15.83
2019-05-28T06:30:40.212Z,15.50
2019-05-28T06:33:11.811Z,15.93
2019-05-28T06:35:43.417Z,17.60
2019-05-28T06:38:14.990Z,14.40
2019-05-28T06:40:46.591Z,15.47
2019-05-28T06:43:18.324Z,15.00
2019-05-28T06:45:49.949Z,14.00
2019-05-28T06:48:21.531Z,13.00
2019-05-28T06:50:53.139Z,12.07
2019-05-28T06:53:24.729Z,13.00
2019-05-28T06:55:56.363Z,10.70
2019-05-28T06:58:38.714Z,11.17
2019-05-28T07:01:01.408Z,10.57
2019-05-28T07:03:33.102Z,10.70
2019-05-28T07:06:07.623Z,9.60
2019-05-28T07:08:37.997Z,10.33
2019-05-28T07:11:09.606Z,9.00
2019-05-28T07:13:41.171Z,9.53
2019-05-28T07:16:13.812Z,8.77
2019-05-28T07:18:45.411Z,7.57
2019-05-28T07:21:16.965Z,6.87
2019-05-28T07:23:48.550Z,6.93
2019-05-28T07:26:20.142Z,7.20
2019-05-28T07:28:51.737Z,6.43
2019-05-28T07:31:23.291Z,6.60
2019-05-28T07:33:54.881Z,6.23
2019-05-28T07:36:26.468Z,6.50
2019-05-28T07:38:58.055Z,6.07
2019-05-28T07:41:29.634Z,6.33
2019-05-28T07:44:01.256Z,7.10
2019-05-28T07:46:32.837Z,7.17
2019-05-28T07:49:04.424Z,6.60
2019-05-28T07:51:36.065Z,6.77
2019-05-28T07:54:07.588Z,6.87
2019-05-28T07:56:39.148Z,6.47
2019-05-28T07:59:10.797Z,7.13
2019-05-28T08:01:43.437Z,7.43
2019-05-28T08:04:15.073Z,8.10
2019-05-28T08:06:54.752Z,8.17
2019-05-28T08:09:19.892Z,9.07
2019-05-28T08:11:51.471Z,8.53
2019-05-28T08:14:23.058Z,8.77
2019-05-28T08:16:54.640Z,9.10
2019-05-28T08:19:26.224Z,9.40
2019-05-28T08:21:57.816Z,9.80
2019-05-28T08:24:29.486Z,10.60
2019-05-28T08:27:01.072Z,9.57
2019-05-28T08:29:32.653Z,10.90
2019-05-28T08:32:04.269Z,13.03
2019-05-28T08:34:35.839Z,11.57
2019-05-28T08:37:07.434Z,11.33
2019-05-28T08:39:39.011Z,12.30
2019-05-28T08:42:10.604Z,12.53
2019-05-28T08:44:43.247Z,11.80
2019-05-28T08:47:14.826Z,13.13
2019-05-28T08:49:46.473Z,14.73
2019-05-28T08:52:18.058Z,13.37
2019-05-28T08:54:51.264Z,13.90
2019-05-28T08:57:22.921Z,13.83
2019-05-28T08:59:54.729Z,13.37
2019-05-28T09:02:28.705Z,11.90
2019-05-28T09:04:59.635Z,10.23
2019-05-28T09:07:31.248Z,7.70
2019-05-28T09:10:03.029Z,7.10
2019-05-28T09:12:34.596Z,6.20
2019-05-28T09:15:06.915Z,6.73
2019-05-28T09:17:38.513Z,6.80
2019-05-28T09:20:10.337Z,7.00
2019-05-28T09:22:41.894Z,7.10
2019-05-28T09:25:13.585Z,6.07
2019-05-28T09:27:45.156Z,6.10
2019-05-28T09:30:17.117Z,6.40
2019-05-28T09:32:49.094Z,6.60
2019-05-28T09:35:20.940Z,6.10
2019-05-28T09:37:52.654Z,6.77
2019-05-28T09:40:24.430Z,6.23
2019-05-28T09:42:56.011Z,6.67
2019-05-28T09:45:28.829Z,7.23
2019-05-28T09:48:00.480Z,7.20
2019-05-28T09:50:32.107Z,8.13
2019-05-28T09:53:03.745Z,8.73
2019-05-28T09:55:35.326Z,9.20
2019-05-28T09:58:08.500Z,8.97
2019-05-28T10:00:56.757Z,8.60
2019-05-28T10:03:13.896Z,8.90
2019-05-28T10:05:58.571Z,9.70
2019-05-28T10:08:18.826Z,9.30
2019-05-28T10:10:51.519Z,9.07
2019-05-28T10:13:37.456Z,8.07
2019-05-28T10:15:57.626Z,6.83
2019-05-28T10:18:29.202Z,7.47
2019-05-28T10:21:16.861Z,6.83
2019-05-28T10:23:34.139Z,6.20
2019-05-28T10:26:05.725Z,5.43
2019-05-28T10:28:37.349Z,4.70
2019-05-28T10:31:08.917Z,4.43
2019-05-28T10:33:40.494Z,4.67
2019-05-28T10:36:12.071Z,4.13
2019-05-28T10:38:43.723Z,4.13
2019-05-28T10:41:15.335Z,5.10
2019-05-28T10:43:46.902Z,3.73
2019-05-28T10:46:18.572Z,3.30
2019-05-28T10:48:50.119Z,3.53
2019-05-28T10:51:21.721Z,3.30
2019-05-28T10:53:53.291Z,3.27
2019-05-28T10:56:24.895Z,3.10
2019-05-28T10:58:56.476Z,2.63
2019-05-28T11:01:28.068Z,2.40
2019-05-28T11:03:59.679Z,2.73
2019-05-28T11:06:31.260Z,2.73
2019-05-28T11:09:02.887Z,2.67
2019-05-28T11:11:34.473Z,2.87
2019-05-28T11:14:06.640Z,2.57
2019-05-28T11:16:38.240Z,2.60
2019-05-28T11:19:09.864Z,2.57
2019-05-28T11:21:41.480Z,2.80
2019-05-28T11:24:13.069Z,2.17
2019-05-28T11:26:44.670Z,2.07
2019-05-28T11:29:16.255Z,2.00
2019-05-28T11:31:47.856Z,2.33
2019-05-28T11:34:19.555Z,2.10
2019-05-28T11:37:08.071Z,2.47
2019-05-28T11:39:24.578Z,2.87
2019-05-28T11:41:57.277Z,1.90
2019-05-28T11:44:29.021Z,2.07
2019-05-28T11:47:00.635Z,2.43
2019-05-28T11:49:32.204Z,3.30
2019-05-28T11:52:03.948Z,2.10
2019-05-28T11:54:35.568Z,2.30
2019-05-28T11:57:07.138Z,2.40
2019-05-28T11:59:38.732Z,2.10
2019-05-28T12:02:10.427Z,2.33
2019-05-28T12:04:42.056Z,2.20
2019-05-28T12:07:25.570Z,2.40
2019-05-28T12:09:47.992Z,2.23
2019-05-28T12:12:19.580Z,2.20
2019-05-28T12:14:51.158Z,2.40
2019-05-28T12:17:40.864Z,1.90
2019-05-28T12:19:57.141Z,2.10
2019-05-28T12:22:28.767Z,2.67
2019-05-28T12:25:00.353Z,2.13
2019-05-28T12:27:31.960Z,2.53
2019-05-28T12:30:03.869Z,2.33
2019-05-28T12:32:36.512Z,2.20
2019-05-28T12:35:26.327Z,2.37
2019-05-28T12:37:48.361Z,1.90
2019-05-28T12:40:16.350Z,2.03
2019-05-28T12:42:47.952Z,2.00
2019-05-28T12:45:34.346Z,1.30
2019-05-28T12:48:09.665Z,1.50
2019-05-28T12:50:28.240Z,1.57
2019-05-28T12:53:00.280Z,2.17
2019-05-28T12:55:31.897Z,1.50
2019-05-28T12:58:03.635Z,1.43
2019-05-28T13:00:36.722Z,2.20
2019-05-28T13:03:08.364Z,1.67
2019-05-28T13:05:40.036Z,1.65
2019-05-28T13:08:11.757Z,1.30
2019-05-28T13:10:43.351Z,1.33
2019-05-28T13:13:14.935Z,1.30
2019-05-28T13:15:46.540Z,1.70
2019-05-28T13:18:18.593Z,1.60
2019-05-28T13:20:50.214Z,1.30
2019-05-28T13:23:21.782Z,1.40
2019-05-28T13:25:53.415Z,1.30
2019-05-28T13:28:25.022Z,1.67
2019-05-28T13:30:56.629Z,1.53
2019-05-28T13:33:28.511Z,1.90
2019-05-28T13:36:00.154Z,1.60
2019-05-28T13:38:31.765Z,1.50
2019-05-28T13:41:03.381Z,1.70
2019-05-28T13:43:35.145Z,1.87
2019-05-28T13:46:06.794Z,2.27
2019-05-28T13:48:38.378Z,1.50
2019-05-28T13:51:09.991Z,2.00
2019-05-28T13:53:42.649Z,1.70
2019-05-28T13:56:14.259Z,1.87
2019-05-28T13:58:45.861Z,1.87
2019-05-28T14:01:17.546Z,2.50
2019-05-28T14:03:49.077Z,1.70
2019-05-28T14:06:20.663Z,2.00
2019-05-28T14:08:52.221Z,1.90
2019-05-28T14:11:23.833Z,1.70
2019-05-28T14:13:56.521Z,1.20
2019-05-28T14:16:28.124Z,1.20
2019-05-28T14:18:59.830Z,1.30
2019-05-28T14:21:31.442Z,1.13
2019-05-28T14:24:03.047Z,1.50
2019-05-28T14:26:34.638Z,1.40
2019-05-28T14:29:06.290Z,1.50
2019-05-28T14:31:37.875Z,1.50
2019-05-28T14:34:09.454Z,1.80
2019-05-28T14:36:41.091Z,1.53
2019-05-28T14:39:12.724Z,1.60
2019-05-28T14:41:44.322Z,1.60
2019-05-28T14:44:15.926Z,1.60
2019-05-28T14:46:47.508Z,1.70
2019-05-28T14:49:19.102Z,1.30
2019-05-28T14:51:50.756Z,1.33
2019-05-28T14:54:22.372Z,1.47
2019-05-28T14:56:53.984Z,1.20
2019-05-28T14:59:25.658Z,1.40
2019-05-28T15:01:57.232Z,1.30
2019-05-28T15:04:28.873Z,1.87
2019-05-28T15:07:00.439Z,1.10
2019-05-28T15:09:32.038Z,1.47
2019-05-28T15:12:03.992Z,1.40
2019-05-28T15:14:35.871Z,1.30
2019-05-28T15:17:07.499Z,1.53
2019-05-28T15:19:39.081Z,1.20
2019-05-28T15:22:10.740Z,1.50
2019-05-28T15:24:42.615Z,1.50
2019-05-28T15:27:14.204Z,1.80
2019-05-28T15:29:46.929Z,1.63
2019-05-28T15:32:18.546Z,1.57
2019-05-28T15:34:50.166Z,1.90
2019-05-28T15:37:21.766Z,1.67
2019-05-28T15:39:53.349Z,1.90
2019-05-28T15:42:25.018Z,1.70
2019-05-28T15:44:56.657Z,1.80
2019-05-28T15:47:28.309Z,1.87
2019-05-28T15:50:00.124Z,1.57
2019-05-28T15:52:31.999Z,1.97
2019-05-28T15:55:03.673Z,1.60
2019-05-28T15:57:35.299Z,1.60
2019-05-28T16:00:08.265Z,1.53
2019-05-28T16:02:39.949Z,1.70
2019-05-28T16:05:11.883Z,2.07
2019-05-28T16:07:43.426Z,1.80
2019-05-28T16:10:15.860Z,1.43
2019-05-28T16:12:47.428Z,1.50
2019-05-28T16:15:21.126Z,1.60
2019-05-28T16:17:52.726Z,1.90
2019-05-28T16:20:24.442Z,1.67
2019-05-28T16:22:56.060Z,1.63
2019-05-28T16:25:27.664Z,1.90
2019-05-28T16:27:59.249Z,1.90
2019-05-28T16:30:31.948Z,1.90
2019-05-28T16:33:03.655Z,1.80
2019-05-28T16:35:35.348Z,1.80
2019-05-28T16:38:06.948Z,1.60
2019-05-28T16:40:38.542Z,1.73
2019-05-28T16:43:10.133Z,2.00
2019-05-28T16:45:41.807Z,2.07
2019-05-28T16:48:13.440Z,1.90
2019-05-28T16:50:45.067Z,2.00
2019-05-28T16:53:16.654Z,2.10
2019-05-28T16:55:48.297Z,2.07
2019-05-28T16:58:19.936Z,1.97
2019-05-28T17:00:51.552Z,2.00
2019-05-28T17:03:23.141Z,2.10
2019-05-28T17:05:54.735Z,2.40
2019-05-28T17:08:26.365Z,2.33
2019-05-28T17:10:58.017Z,2.30
2019-05-28T17:13:31.328Z,2.43
2019-05-28T17:16:02.973Z,3.00
2019-05-28T17:18:34.765Z,2.50
2019-05-28T17:21:06.368Z,2.40
2019-05-28T17:23:37.966Z,2.33
2019-05-28T17:26:09.712Z,2.27
2019-05-28T17:28:41.414Z,2.33
2019-05-28T17:31:13.143Z,1.70
2019-05-28T17:33:44.750Z,2.00
2019-05-28T17:36:16.367Z,2.40
2019-05-28T17:38:47.951Z,2.80
2019-05-28T17:41:20.136Z,2.43
2019-05-28T17:43:53.047Z,2.37
2019-05-28T17:46:24.721Z,2.90
2019-05-28T17:48:56.323Z,2.53
2019-05-28T17:51:27.932Z,2.80
2019-05-28T17:53:59.520Z,2.37
2019-05-28T17:56:31.270Z,2.20
2019-05-28T17:59:02.843Z,2.00
2019-05-28T18:01:34.499Z,2.20
2019-05-28T18:04:06.197Z,2.10
2019-05-28T18:06:37.852Z,2.03
2019-05-28T18:09:09.727Z,1.80
2019-05-28T18:11:41.327Z,1.90
2019-05-28T18:14:12.908Z,2.00
2019-05-28T18:16:44.550Z,1.70
2019-05-28T18:19:16.230Z,1.80
2019-05-28T18:21:47.868Z,1.70
2019-05-28T18:24:20.918Z,1.77
2019-05-28T18:26:52.741Z,1.63
2019-05-28T18:29:24.353Z,2.00
2019-05-28T18:31:56.010Z,1.70
2019-05-28T18:34:27.616Z,2.00
2019-05-28T18:36:59.255Z,1.60
2019-05-28T18:39:30.847Z,1.90
2019-05-28T18:42:02.504Z,1.70
2019-05-28T18:44:34.121Z,1.53
2019-05-28T18:47:05.741Z,1.80
2019-05-28T18:49:38.482Z,1.67
2019-05-28T18:52:10.095Z,1.80
2019-05-28T18:54:41.724Z,1.83
2019-05-28T18:57:13.370Z,1.60
2019-05-28T18:59:45.140Z,2.00
2019-05-28T19:02:16.787Z,1.80
2019-05-28T19:04:48.506Z,1.80
2019-05-28T19:07:20.119Z,1.60
2019-05-28T19:09:51.749Z,1.63
2019-05-28T19:12:23.335Z,2.13
2019-05-28T19:14:55.052Z,1.97
2019-05-28T19:17:26.639Z,1.63
2019-05-28T19:19:58.325Z,1.73
2019-05-28T19:22:29.936Z,1.77
2019-05-28T19:25:01.632Z,1.67
2019-05-28T19:27:35.545Z,1.30
2019-05-28T19:30:08.439Z,1.30
2019-05-28T19:32:40.245Z,1.50
2019-05-28T19:35:13.460Z,1.60
2019-05-28T19:37:45.508Z,1.50
2019-05-28T19:40:25.468Z,1.40
2019-05-28T19:42:57.342Z,1.30
2019-05-28T19:45:28.927Z,1.53
2019-05-28T19:48:00.565Z,1.40
2019-05-28T19:50:32.162Z,1.50
2019-05-28T19:53:05.592Z,1.90
2019-05-28T19:55:38.419Z,1.60
2019-05-28T19:58:10.131Z,1.50
2019-05-28T20:00:43.564Z,1.77
2019-05-28T20:03:15.268Z,1.57
2019-05-28T20:05:46.895Z,1.60
2019-05-28T20:08:18.790Z,1.80
2019-05-28T20:10:50.887Z,1.40
2019-05-28T20:13:22.638Z,1.57
2019-05-28T20:15:56.906Z,1.60
2019-05-28T20:18:27.605Z,3.80
2019-05-28T20:20:59.229Z,2.20
2019-05-28T20:23:30.820Z,2.30
2019-05-28T20:26:02.414Z,2.10
2019-05-28T20:28:34.540Z,1.93
2019-05-28T20:31:06.174Z,2.00
2019-05-28T20:33:37.861Z,2.27
2019-05-28T20:36:09.995Z,1.87
2019-05-28T20:38:41.815Z,1.90
2019-05-28T20:41:13.415Z,1.97
2019-05-28T20:43:45.094Z,2.63
2019-05-28T20:46:16.723Z,2.80
2019-05-28T20:48:48.304Z,1.80
2019-05-28T20:51:21.970Z,2.20
2019-05-28T20:53:53.194Z,2.33
2019-05-28T20:56:24.781Z,1.87
2019-05-28T20:59:00.981Z,2.07
2019-05-28T21:01:30.894Z,2.03
2019-05-28T21:04:02.499Z,2.10
2019-05-28T21:06:34.107Z,2.10
2019-05-28T21:09:07.491Z,2.07
2019-05-28T21:11:39.109Z,2.20
2019-05-28T21:14:10.719Z,2.20
2019-05-28T21:16:42.387Z,2.27
2019-05-28T21:19:13.975Z,2.20
2019-05-28T21:21:46.657Z,2.03
2019-05-28T21:24:18.248Z,2.20
2019-05-28T21:26:50.057Z,2.20
2019-05-28T21:29:21.839Z,1.90
2019-05-28T21:31:54.497Z,2.40
2019-05-28T21:34:26.178Z,2.50
2019-05-28T21:36:57.798Z,3.10
2019-05-28T21:39:29.387Z,2.40
2019-05-28T21:42:02.181Z,2.40
2019-05-28T21:44:34.241Z,2.33
2019-05-28T21:47:05.972Z,2.50
2019-05-28T21:49:38.493Z,2.73
2019-05-28T21:52:10.134Z,2.17
2019-05-28T21:54:41.764Z,2.10
2019-05-28T21:57:13.368Z,2.20
2019-05-28T21:59:44.933Z,2.33
2019-05-28T22:02:16.533Z,2.43
2019-05-28T22:04:48.117Z,2.30
2019-05-28T22:07:19.706Z,2.20
2019-05-28T22:09:51.273Z,2.60
2019-05-28T22:12:22.879Z,2.30
2019-05-28T22:14:54.452Z,2.70
2019-05-28T22:17:26.045Z,2.63
2019-05-28T22:19:58.681Z,2.60
2019-05-28T22:22:30.353Z,2.23
2019-05-28T22:25:02.695Z,2.80
2019-05-28T22:27:34.395Z,2.03
2019-05-28T22:30:07.944Z,2.30
2019-05-28T22:32:39.557Z,2.33
2019-05-28T22:35:11.519Z,2.97
2019-05-28T22:37:43.119Z,2.80
2019-05-28T22:40:14.987Z,2.43
2019-05-28T22:42:46.563Z,2.43
2019-05-28T22:45:18.332Z,1.80
2019-05-28T22:47:49.916Z,1.87
2019-05-28T22:50:23.404Z,2.17
2019-05-28T22:52:55.168Z,2.80
2019-05-28T22:55:26.759Z,2.60
2019-05-28T22:57:58.338Z,2.67
2019-05-28T23:00:29.962Z,2.57
2019-05-28T23:03:02.847Z,2.60
2019-05-28T23:05:34.553Z,2.60
2019-05-28T23:08:06.346Z,2.67
2019-05-28T23:10:37.941Z,2.87
2019-05-28T23:13:09.507Z,2.63
2019-05-28T23:15:41.075Z,2.40
2019-05-28T23:18:12.657Z,3.20
2019-05-28T23:20:44.323Z,2.97
2019-05-28T23:23:15.882Z,3.93
2019-05-28T23:25:47.489Z,3.37
2019-05-28T23:28:19.042Z,3.00
2019-05-28T23:30:50.618Z,2.93
2019-05-28T23:33:22.242Z,3.13
2019-05-28T23:35:53.845Z,3.50
2019-05-28T23:38:25.410Z,3.83
2019-05-28T23:40:56.978Z,3.80
2019-05-28T23:43:28.589Z,3.80
2019-05-28T23:46:00.191Z,3.83
2019-05-28T23:48:31.771Z,3.10
2019-05-28T23:51:06.333Z,3.67
2019-05-28T23:53:38.009Z,3.57
2019-05-28T23:56:09.739Z,3.90
2019-05-28T23:58:41.321Z,3.87
